Time;durP1;ratioP1;P1;durP2;ratioP2;P2;SDS_P1;SDS_P2;PMS_P1;PMS_P2;Temp;Humidity;BMP_temperature;BMP_pressure;BME280_temperature;BME280_humidity;BME280_pressure;Samples;Min_cycle;Max_cycle;Signal;HPM_P1;HPM_P2
2023/01/17 00:02:05;;;;;;;8.10;1.60;;;6.60;99.90;;;;;;4995058;28;20074;-63
2023/01/17 00:10:10;;;;;;;8.85;2.00;;;7.00;80.30;;;;;;5001342;28;20040;-62
2023/01/17 00:12:36;;;;;;;4.82;1.17;;;7.00;18.60;;;;;;5006129;28;20491;-62
2023/01/17 00:15:02;;;;;;;2.90;1.13;;;7.00;1.00;;;;;;5000306;28;20485;-61
2023/01/17 00:17:28;;;;;;;5.90;1.67;;;7.00;99.90;;;;;;4997303;28;20038;-62
2023/01/17 01:35:00;;;;;;;10.55;1.65;;;6.30;30.20;;;;;;5015087;28;20052;-61
2023/01/17 01:37:26;;;;;;;5.50;1.35;;;6.20;52.50;;;;;;5014127;28;20041;-61
2023/01/17 01:39:51;;;;;;;4.53;1.30;;;6.20;24.10;;;;;;5012298;28;20117;-61
2023/01/17 01:42:17;;;;;;;6.45;1.80;;;6.30;1.00;;;;;;5019836;28;20403;-61
2023/01/17 01:44:48;;;;;;;7.68;1.70;;;6.40;1.00;;;;;;5019250;28;20150;-61
2023/01/17 01:47:24;;;;;;;6.85;2.00;;;6.50;1.00;;;;;;5012285;28;20069;-62
2023/01/17 01:49:50;;;;;;;4.40;1.48;;;6.60;1.00;;;;;;5014937;28;20544;-61
2023/01/17 01:52:19;;;;;;;9.20;1.40;;;6.70;1.00;;;;;;5014221;28;20164;-60
2023/01/17 01:55:03;;;;;;;7.53;1.08;;;6.70;99.90;;;;;;5013889;28;20095;-61
2023/01/17 01:57:33;;;;;;;12.20;1.67;;;6.80;99.90;;;;;;5014468;28;20042;-61
2023/01/17 02:00:03;;;;;;;4.85;2.13;;;6.80;99.90;;;;;;5003438;28;20038;-61
2023/01/17 02:02:30;;;;;;;10.25;1.63;;;7.00;99.90;;;;;;4999169;28;20065;-61
2023/01/17 02:04:57;;;;;;;9.27;2.13;;;7.10;99.90;;;;;;4995903;28;20056;-61
2023/01/17 02:07:32;;;;;;;12.40;2.13;;;7.20;99.90;;;;;;4998878;28;20034;-61
2023/01/17 02:09:57;;;;;;;6.88;1.48;;;7.20;99.90;;;;;;5004622;28;20030;-62
2023/01/17 02:12:24;;;;;;;8.13;2.00;;;7.20;99.90;;;;;;5002259;28;20030;-61
2023/01/17 02:14:49;;;;;;;7.80;1.67;;;7.20;99.90;;;;;;5003327;28;20030;-61
2023/01/17 02:17:26;;;;;;;8.43;1.92;;;7.10;99.90;;;;;;5002158;28;20045;-61
2023/01/17 02:20:12;;;;;;;5.05;1.60;;;7.00;99.90;;;;;;5009706;28;20046;-61
2023/01/17 02:22:52;;;;;;;9.93;1.88;;;6.90;99.90;;;;;;4992300;28;20056;-61
2023/01/17 02:26:03;;;;;;;10.00;2.33;;;6.90;99.90;;;;;;5006384;28;20120;-62
2023/01/17 02:28:31;;;;;;;12.30;2.67;;;6.80;99.90;;;;;;4994540;28;20073;-61
2023/01/17 02:31:09;;;;;;;12.40;1.92;;;6.80;99.90;;;;;;4994403;28;20046;-62
2023/01/17 02:33:46;;;;;;;12.98;2.45;;;6.90;99.90;;;;;;4997856;28;20060;-61
2023/01/17 02:36:43;;;;;;;12.07;2.15;;;6.80;99.90;;;;;;5000147;28;20092;-61
2023/01/17 02:39:16;;;;;;;;;;;6.90;99.90;;;;;;5005034;28;20129;-61
2023/01/17 02:41:44;;;;;;;14.90;2.45;;;6.90;99.90;;;;;;5001413;28;19924;-61
2023/01/17 02:44:15;;;;;;;8.50;1.55;;;7.00;99.90;;;;;;5009185;28;20042;-61
2023/01/17 02:46:50;;;;;;;10.40;1.70;;;7.00;99.90;;;;;;4998840;28;20037;-61
2023/01/17 02:49:18;;;;;;;7.03;1.67;;;7.10;99.90;;;;;;5012854;28;20111;-61
2023/01/17 02:52:19;;;;;;;13.13;2.42;;;7.10;99.90;;;;;;5002644;28;20042;-61
2023/01/17 02:55:19;;;;;;;12.27;2.53;;;7.10;99.90;;;;;;5003353;28;20104;-61
2023/01/17 02:58:12;;;;;;;6.65;1.90;;;6.80;99.90;;;;;;5006544;28;20235;-61
2023/01/17 03:01:09;;;;;;;7.85;1.85;;;6.50;99.90;;;;;;4997042;28;20038;-61
2023/01/17 03:04:02;;;;;;;9.02;2.03;;;6.30;99.90;;;;;;4994013;28;20105;-61
2023/01/17 03:06:59;;;;;;;12.88;2.25;;;6.30;99.90;;;;;;4997838;28;20086;-61
2023/01/17 03:09:25;;;;;;;5.30;1.45;;;6.30;99.90;;;;;;4997390;28;20576;-61
2023/01/17 03:11:51;;;;;;;7.90;1.58;;;6.50;99.90;;;;;;5008328;28;20042;-61
2023/01/17 03:14:17;;;;;;;6.53;1.63;;;6.40;99.90;;;;;;5010374;28;20069;-61
2023/01/17 03:16:42;;;;;;;7.72;1.85;;;6.40;90.20;;;;;;5000919;28;20113;-67
2023/01/17 03:19:08;;;;;;;5.78;1.80;;;6.40;69.40;;;;;;5010730;28;20053;-65
2023/01/17 03:21:34;;;;;;;5.43;1.60;;;6.40;64.90;;;;;;5006955;28;20080;-64
2023/01/17 03:24:01;;;;;;;8.68;1.98;;;6.30;60.50;;;;;;4992627;28;20042;-68
2023/01/17 03:26:27;;;;;;;8.43;1.80;;;6.30;56.50;;;;;;5003784;28;20030;-65
2023/01/17 03:28:53;;;;;;;11.52;2.05;;;6.20;60.40;;;;;;4994639;28;20064;-65
2023/01/17 03:31:18;;;;;;;11.63;2.15;;;6.30;70.90;;;;;;4992038;28;20043;-63
2023/01/17 03:33:44;;;;;;;16.75;3.15;;;6.20;81.80;;;;;;4993290;28;20429;-65
2023/01/17 03:36:10;;;;;;;10.27;2.00;;;6.20;99.90;;;;;;4999783;28;20145;-65
2023/01/17 03:38:36;;;;;;;7.95;1.98;;;6.10;99.90;;;;;;5011354;28;20116;-65
2023/01/17 03:41:03;;;;;;;13.50;2.60;;;6.10;99.90;;;;;;4977586;28;20224;-64
2023/01/17 03:43:28;;;;;;;10.55;1.90;;;6.10;99.90;;;;;;5001292;28;20581;-65
2023/01/17 03:46:04;;;;;;;17.70;2.15;;;6.20;99.90;;;;;;5010025;28;20097;-66
2023/01/17 03:48:30;;;;;;;12.88;2.30;;;6.10;99.90;;;;;;5009921;28;20041;-66
2023/01/17 03:50:56;;;;;;;5.18;1.60;;;6.20;99.90;;;;;;4994763;28;20049;-69
2023/01/17 03:53:21;;;;;;;8.60;1.98;;;6.20;99.90;;;;;;4992858;28;20397;-68
2023/01/17 03:55:47;;;;;;;6.45;1.60;;;6.10;75.20;;;;;;4997563;28;20030;-68
2023/01/17 03:58:13;;;;;;;8.38;1.67;;;6.20;35.00;;;;;;5010151;28;20125;-68
2023/01/17 04:00:38;;;;;;;9.20;2.15;;;6.10;17.80;;;;;;5006553;28;20088;-69
2023/01/17 04:03:04;;;;;;;9.60;1.80;;;6.20;11.10;;;;;;5009411;28;20100;-68
2023/01/17 04:05:30;;;;;;;8.00;1.23;;;6.10;11.00;;;;;;4989703;28;20054;-68
2023/01/17 04:07:55;;;;;;;7.03;1.50;;;6.10;1.90;;;;;;5009919;28;20042;-68
2023/01/17 04:10:21;;;;;;;10.23;1.67;;;6.10;1.00;;;;;;5009830;28;20685;-68
2023/01/17 04:12:47;;;;;;;5.00;1.50;;;6.00;1.00;;;;;;5007940;28;20054;-68
2023/01/17 04:15:12;;;;;;;5.72;1.27;;;6.00;1.00;;;;;;4999672;28;20048;-68
2023/01/17 04:17:38;;;;;;;8.27;1.50;;;6.00;1.00;;;;;;5006487;28;20133;-68
2023/01/17 04:20:04;;;;;;;4.32;1.20;;;5.90;1.00;;;;;;5004399;28;20500;-69
2023/01/17 04:22:30;;;;;;;12.35;3.08;;;5.90;1.00;;;;;;4999219;28;20038;-68
2023/01/17 04:24:59;;;;;;;6.80;1.63;;;5.90;1.00;;;;;;4995649;28;20481;-67
2023/01/17 04:27:25;;;;;;;5.93;1.60;;;5.80;1.00;;;;;;4998334;28;20096;-68
2023/01/17 04:29:50;;;;;;;4.07;1.30;;;5.90;1.00;;;;;;5010532;28;20061;-68
2023/01/17 04:32:16;;;;;;;8.75;1.20;;;5.90;1.00;;;;;;4991331;28;20082;-67
2023/01/17 04:34:42;;;;;;;7.50;1.63;;;5.80;1.00;;;;;;4992525;28;20042;-69
2023/01/17 04:37:07;;;;;;;3.28;1.30;;;5.90;1.00;;;;;;5007291;28;20038;-68
2023/01/17 04:39:33;;;;;;;9.43;1.30;;;5.80;1.00;;;;;;4990854;28;20081;-68
2023/01/17 04:41:58;;;;;;;6.35;1.42;;;5.80;1.00;;;;;;4974947;28;20054;-68
2023/01/17 04:44:24;;;;;;;9.38;1.60;;;5.80;1.00;;;;;;4996326;28;20034;-68
2023/01/17 04:46:49;;;;;;;10.15;2.05;;;5.70;1.00;;;;;;4999497;28;20121;-69
2023/01/17 04:49:15;;;;;;;10.55;2.20;;;5.70;1.00;;;;;;5007122;28;20042;-69
2023/01/17 04:51:40;;;;;;;10.73;2.00;;;5.60;1.00;;;;;;4980980;28;20041;-67
2023/01/17 04:54:06;;;;;;;5.60;2.03;;;5.50;1.00;;;;;;5005873;28;20048;-69
2023/01/17 04:56:31;;;;;;;6.00;1.63;;;5.50;1.00;;;;;;5003349;28;20397;-69
2023/01/17 04:58:57;;;;;;;6.03;1.40;;;5.60;1.00;;;;;;4990781;28;20038;-69
2023/01/17 05:01:23;;;;;;;5.35;1.30;;;5.60;1.00;;;;;;4989848;28;21280;-68
2023/01/17 05:03:48;;;;;;;8.63;1.40;;;5.70;1.00;;;;;;5007777;28;20044;-67
2023/01/17 05:06:14;;;;;;;8.50;1.63;;;5.80;1.00;;;;;;5007820;28;20084;-68
2023/01/17 05:08:40;;;;;;;7.63;1.38;;;5.70;1.00;;;;;;5008822;28;20494;-68
2023/01/17 05:11:06;;;;;;;9.32;1.85;;;5.80;1.00;;;;;;4993550;28;20050;-69
2023/01/17 05:13:31;;;;;;;13.32;1.98;;;5.70;1.00;;;;;;5001276;28;20117;-69
2023/01/17 05:15:57;;;;;;;9.82;1.70;;;5.70;1.00;;;;;;5000997;28;20037;-69
2023/01/17 05:18:23;;;;;;;13.57;2.05;;;5.80;1.00;;;;;;5005795;28;20452;-69
2023/01/17 05:20:49;;;;;;;4.70;1.45;;;5.70;1.00;;;;;;5004670;28;20033;-69
2023/01/17 05:23:14;;;;;;;11.05;1.50;;;5.70;1.00;;;;;;4996710;28;20419;-67
2023/01/17 05:25:43;;;;;;;6.65;1.42;;;5.60;1.00;;;;;;5008670;28;20057;-69
2023/01/17 05:28:09;;;;;;;11.82;1.90;;;5.70;1.00;;;;;;5012637;28;20038;-69
2023/01/17 05:30:34;;;;;;;10.10;2.20;;;5.60;1.00;;;;;;5002022;28;20042;-68
2023/01/17 05:33:00;;;;;;;7.57;2.00;;;5.60;1.00;;;;;;4998445;28;20034;-69
2023/01/17 05:35:28;;;;;;;8.70;1.88;;;5.50;1.00;;;;;;5008949;28;20048;-69
2023/01/17 05:37:55;;;;;;;8.52;1.65;;;5.60;1.00;;;;;;5000813;28;20600;-69
2023/01/17 05:40:23;;;;;;;6.03;1.52;;;5.60;1.00;;;;;;5000640;28;20073;-68
2023/01/17 05:42:51;;;;;;;5.45;1.42;;;5.60;1.00;;;;;;5013565;28;20121;-69
2023/01/17 05:45:19;;;;;;;5.07;1.65;;;5.70;1.00;;;;;;5012505;28;20042;-68
2023/01/17 05:47:47;;;;;;;11.07;2.28;;;5.70;1.00;;;;;;5004322;28;20093;-68
2023/01/17 05:50:15;;;;;;;7.95;1.42;;;5.70;1.00;;;;;;5012840;28;20048;-68
2023/01/17 05:52:41;;;;;;;6.35;1.50;;;5.70;1.00;;;;;;5003770;28;20038;-69
2023/01/17 05:55:07;;;;;;;5.25;1.50;;;5.60;1.00;;;;;;4977491;28;20034;-68
2023/01/17 05:57:33;;;;;;;6.97;1.35;;;5.50;1.00;;;;;;4993789;28;20146;-68
2023/01/17 05:59:59;;;;;;;7.53;1.50;;;5.50;1.00;;;;;;4989837;28;20037;-68
2023/01/17 06:02:25;;;;;;;3.78;1.10;;;5.50;1.00;;;;;;5011386;28;20104;-69
2023/01/17 06:04:50;;;;;;;5.05;1.42;;;5.40;1.00;;;;;;4997222;28;20050;-69
2023/01/17 06:07:16;;;;;;;7.50;1.42;;;5.40;1.00;;;;;;5003148;28;20042;-69
2023/01/17 06:09:41;;;;;;;7.93;1.58;;;5.40;1.00;;;;;;5004685;28;20034;-68
2023/01/17 06:12:07;;;;;;;4.95;1.27;;;5.50;1.00;;;;;;4993456;28;20046;-69
2023/01/17 06:14:33;;;;;;;6.18;1.40;;;5.50;1.00;;;;;;5011486;28;20046;-64
2023/01/17 06:16:58;;;;;;;6.95;1.60;;;5.40;1.00;;;;;;5012602;28;20042;-62
2023/01/17 06:19:24;;;;;;;8.68;1.55;;;5.30;1.00;;;;;;5006642;28;20420;-61
2023/01/17 06:21:49;;;;;;;5.93;1.60;;;5.20;1.00;;;;;;5002357;28;20404;-61
2023/01/17 06:24:15;;;;;;;9.00;1.65;;;5.10;1.00;;;;;;4994677;28;20065;-61
2023/01/17 06:26:42;;;;;;;11.60;1.60;;;5.10;1.00;;;;;;5008200;28;20120;-61
2023/01/17 06:29:10;;;;;;;9.45;1.80;;;5.10;1.00;;;;;;4994127;28;20121;-61
2023/01/17 06:31:35;;;;;;;11.10;2.42;;;5.10;4.50;;;;;;4994359;28;20069;-63
2023/01/17 06:34:02;;;;;;;9.15;2.10;;;5.20;10.50;;;;;;5000943;28;20050;-67
2023/01/17 06:36:28;;;;;;;10.85;2.80;;;5.30;18.40;;;;;;4999893;28;20092;-68
2023/01/17 06:38:53;;;;;;;10.60;1.75;;;5.30;23.80;;;;;;5012476;28;20042;-67
2023/01/17 06:41:19;;;;;;;13.30;2.33;;;5.30;26.10;;;;;;5003539;28;20046;-65
2023/01/17 06:43:44;;;;;;;8.45;1.83;;;5.30;26.70;;;;;;5002528;28;20041;-66
2023/01/17 06:46:10;;;;;;;5.95;1.48;;;5.40;18.90;;;;;;5004907;28;20093;-68
2023/01/17 06:48:36;;;;;;;7.10;1.50;;;5.40;12.70;;;;;;5003085;28;20043;-68
2023/01/17 06:51:01;;;;;;;7.72;1.73;;;5.40;6.90;;;;;;5006277;28;20034;-68
2023/01/17 06:53:27;;;;;;;8.38;2.05;;;5.40;5.70;;;;;;5004513;28;20096;-67
2023/01/17 06:55:56;;;;;;;5.10;1.33;;;5.30;5.70;;;;;;5006800;28;20034;-67
2023/01/17 06:58:22;;;;;;;8.02;1.50;;;5.30;1.00;;;;;;5009712;28;20091;-67
2023/01/17 07:00:48;;;;;;;7.32;1.63;;;5.40;1.00;;;;;;5006794;28;20088;-68
2023/01/17 07:03:23;;;;;;;5.68;1.50;;;5.30;1.10;;;;;;4993605;28;20468;-66
2023/01/17 07:05:49;;;;;;;6.18;1.48;;;5.30;1.00;;;;;;4992299;28;20077;-67
2023/01/17 07:08:15;;;;;;;7.13;1.52;;;5.20;1.00;;;;;;5009633;28;20057;-69
2023/01/17 07:10:43;;;;;;;7.22;1.60;;;5.20;1.00;;;;;;5008327;28;20030;-67
2023/01/17 07:13:09;;;;;;;6.97;1.45;;;5.10;1.00;;;;;;4982224;28;20044;-67
2023/01/17 07:15:35;;;;;;;5.45;1.40;;;5.40;1.00;;;;;;5004369;28;20073;-67
2023/01/17 07:18:01;;;;;;;5.40;1.30;;;5.40;1.00;;;;;;5002495;28;20136;-67
2023/01/17 07:20:27;;;;;;;8.18;1.60;;;5.40;1.00;;;;;;4997158;28;20037;-67
2023/01/17 07:22:52;;;;;;;3.95;1.20;;;5.50;1.00;;;;;;4992095;28;20080;-67
2023/01/17 07:25:19;;;;;;;3.45;1.50;;;5.40;1.00;;;;;;5007148;28;20139;-67
2023/01/17 07:27:45;;;;;;;7.53;1.63;;;5.50;1.00;;;;;;5001699;28;20048;-67
2023/01/17 07:30:11;;;;;;;6.80;1.40;;;5.40;1.00;;;;;;5000110;28;20050;-67
2023/01/17 07:32:37;;;;;;;5.18;1.25;;;5.30;1.00;;;;;;5001006;28;20049;-67
2023/01/17 07:35:04;;;;;;;7.97;1.42;;;5.30;1.00;;;;;;4999083;28;20046;-67
2023/01/17 07:37:29;;;;;;;8.57;1.50;;;5.30;1.00;;;;;;5009141;28;20069;-68
2023/01/17 07:39:55;;;;;;;9.75;1.98;;;5.20;1.00;;;;;;4994505;28;20030;-67
2023/01/17 07:42:21;;;;;;;6.95;1.52;;;5.10;1.00;;;;;;5001174;28;20081;-67
2023/01/17 07:44:47;;;;;;;10.50;1.70;;;5.10;1.00;;;;;;5001643;28;20150;-68
2023/01/17 07:47:12;;;;;;;7.93;1.75;;;5.20;1.00;;;;;;5004764;28;20038;-66
2023/01/17 07:49:38;;;;;;;10.88;1.80;;;5.20;1.00;;;;;;5001636;28;20034;-67
2023/01/17 07:52:07;;;;;;;5.78;1.50;;;5.30;1.00;;;;;;5001819;28;20121;-67
2023/01/17 07:54:33;;;;;;;11.75;1.90;;;5.30;1.00;;;;;;5007018;28;20035;-66
2023/01/17 07:56:58;;;;;;;11.98;2.15;;;5.30;1.00;;;;;;4998717;28;20083;-65
2023/01/17 07:59:24;;;;;;;6.72;1.42;;;5.20;1.00;;;;;;4997047;28;20503;-65
2023/01/17 08:01:50;;;;;;;9.48;1.80;;;5.30;1.00;;;;;;5004889;28;20705;-66
2023/01/17 08:04:15;;;;;;;8.60;1.48;;;5.20;1.00;;;;;;4997894;28;20070;-66
2023/01/17 08:06:43;;;;;;;8.95;1.60;;;5.30;1.00;;;;;;4999372;28;20034;-67
2023/01/17 08:09:08;;;;;;;14.63;1.73;;;5.20;3.60;;;;;;5006742;28;20132;-66
2023/01/17 08:11:34;;;;;;;9.85;1.63;;;5.40;16.00;;;;;;5004575;28;20465;-68
2023/01/17 08:13:59;;;;;;;7.47;1.48;;;5.40;37.70;;;;;;5003091;28;20096;-67
2023/01/17 08:16:27;;;;;;;10.05;1.65;;;5.40;32.70;;;;;;5004195;28;20041;-67
2023/01/17 08:18:54;;;;;;;6.53;1.60;;;5.40;36.30;;;;;;5002130;28;20046;-67
2023/01/17 08:21:19;;;;;;;9.57;1.70;;;5.40;34.90;;;;;;5002283;28;20044;-68
2023/01/17 08:23:50;;;;;;;10.20;1.65;;;5.30;41.00;;;;;;4991785;28;20041;-67
2023/01/17 08:26:21;;;;;;;9.40;1.42;;;5.30;18.30;;;;;;5006802;28;20046;-68
2023/01/17 08:29:00;;;;;;;6.28;1.42;;;5.40;9.50;;;;;;4999821;28;20042;-68
2023/01/17 08:31:27;;;;;;;4.53;1.35;;;5.40;9.70;;;;;;5000867;28;20041;-68
2023/01/17 08:33:53;;;;;;;7.97;1.52;;;5.50;14.30;;;;;;5002762;28;20038;-68
2023/01/17 08:36:18;;;;;;;9.43;2.03;;;5.50;19.30;;;;;;5002038;28;20038;-67
2023/01/17 08:38:44;;;;;;;14.23;2.00;;;5.50;22.10;;;;;;4980105;28;20068;-66
2023/01/17 08:41:09;;;;;;;13.07;2.40;;;5.40;24.30;;;;;;5009193;28;20073;-67
2023/01/17 08:43:35;;;;;;;6.32;1.50;;;5.40;28.60;;;;;;5001366;28;20100;-68
2023/01/17 08:46:00;;;;;;;4.20;1.52;;;5.40;33.90;;;;;;4996668;28;20041;-66
2023/01/17 08:48:26;;;;;;;9.05;1.70;;;5.40;41.10;;;;;;4993997;28;20034;-62
2023/01/17 08:50:52;;;;;;;4.90;1.40;;;5.30;41.90;;;;;;5004501;28;20468;-64
2023/01/17 08:53:20;;;;;;;6.53;1.45;;;5.20;44.20;;;;;;4994566;28;20485;-63
2023/01/17 08:55:46;;;;;;;7.72;1.65;;;5.30;39.10;;;;;;4993913;28;20039;-62
2023/01/17 08:58:12;;;;;;;6.63;1.30;;;5.30;20.10;;;;;;4994538;28;20049;-62
2023/01/17 09:00:38;;;;;;;6.35;1.35;;;5.40;15.90;;;;;;5010481;28;20068;-62
2023/01/17 09:03:04;;;;;;;3.25;1.40;;;5.40;4.90;;;;;;4997176;28;20531;-62
2023/01/17 09:05:29;;;;;;;4.63;1.27;;;5.50;7.30;;;;;;4998205;28;20042;-62
2023/01/17 09:07:55;;;;;;;5.93;1.25;;;5.50;2.70;;;;;;4997071;28;20134;-63
2023/01/17 09:10:22;;;;;;;4.63;1.17;;;5.40;5.50;;;;;;4996980;28;20042;-62
2023/01/17 09:12:48;;;;;;;7.20;1.25;;;5.50;1.00;;;;;;5007067;28;20068;-62
2023/01/17 09:15:16;;;;;;;7.15;1.85;;;5.60;1.00;;;;;;5003539;28;20038;-63
2023/01/17 09:17:42;;;;;;;3.58;1.33;;;5.80;1.00;;;;;;4996710;28;20038;-62
2023/01/17 09:20:08;;;;;;;2.90;1.15;;;5.80;1.00;;;;;;4997726;28;20088;-62
2023/01/17 09:22:36;;;;;;;5.15;1.33;;;5.80;1.00;;;;;;4999419;28;20042;-63
2023/01/17 09:25:02;;;;;;;13.63;1.65;;;5.90;1.00;;;;;;5006930;28;20042;-62
2023/01/17 09:27:27;;;;;;;4.70;1.55;;;6.00;1.00;;;;;;5014278;28;20038;-62
2023/01/17 09:29:53;;;;;;;5.05;1.40;;;6.00;1.00;;;;;;5015994;28;20045;-63
2023/01/17 09:32:18;;;;;;;8.27;1.33;;;6.00;1.00;;;;;;5015874;28;20070;-62
2023/01/17 09:34:45;;;;;;;8.52;1.48;;;6.00;1.00;;;;;;5010373;28;20373;-63
2023/01/17 09:37:11;;;;;;;6.05;1.75;;;6.10;1.00;;;;;;5001060;28;20038;-63
2023/01/17 09:39:36;;;;;;;6.70;1.45;;;6.10;1.00;;;;;;5015836;28;20138;-63
2023/01/17 09:42:15;;;;;;;3.90;1.20;;;6.10;1.00;;;;;;5007664;28;20399;-63
2023/01/17 09:44:51;;;;;;;5.28;1.60;;;6.10;1.00;;;;;;4997330;28;20038;-63
2023/01/17 09:47:30;;;;;;;7.03;1.50;;;6.10;1.00;;;;;;5007615;28;20522;-63
2023/01/17 09:50:14;;;;;;;5.68;1.50;;;6.10;1.00;;;;;;4996392;28;20042;-63
2023/01/17 09:52:39;;;;;;;8.02;1.40;;;6.10;1.00;;;;;;5005331;28;20050;-63
2023/01/17 09:55:06;;;;;;;6.75;1.40;;;6.10;1.00;;;;;;5008574;28;20517;-63
2023/01/17 09:57:34;;;;;;;7.60;1.35;;;6.20;1.00;;;;;;4996641;28;20042;-63
2023/01/17 10:00:21;;;;;;;5.85;1.23;;;6.10;1.00;;;;;;4995868;28;20042;-63
2023/01/17 10:02:53;;;;;;;6.07;1.25;;;6.10;1.00;;;;;;4996183;28;20121;-63
2023/01/17 10:05:33;;;;;;;6.32;1.30;;;6.20;1.00;;;;;;5011524;28;20054;-63
2023/01/17 10:08:17;;;;;;;8.48;1.90;;;6.20;1.00;;;;;;4998187;28;20078;-63
2023/01/17 10:11:27;;;;;;;6.22;1.40;;;6.20;1.00;;;;;;5001103;28;20073;-63
2023/01/17 10:14:12;;;;;;;6.47;1.38;;;6.10;1.00;;;;;;5005973;28;20042;-62
2023/01/17 10:16:55;;;;;;;2.08;1.52;;;5.90;1.00;;;;;;5004850;28;20073;-62
2023/01/17 10:19:54;;;;;;;4.22;1.50;;;5.80;1.00;;;;;;5007055;28;20041;-62
2023/01/17 10:22:30;;;;;;;4.90;1.40;;;5.60;1.00;;;;;;5005599;28;20054;-62
2023/01/17 10:25:22;;;;;;;6.72;1.42;;;5.50;1.00;;;;;;5001905;28;20388;-62
2023/01/17 10:27:58;;;;;;;7.28;1.50;;;5.30;1.00;;;;;;4985606;28;20042;-62
2023/01/17 10:30:37;;;;;;;5.28;1.67;;;5.30;1.00;;;;;;5008956;28;20120;-61
2023/01/17 10:33:42;;;;;;;3.83;1.40;;;5.50;1.00;;;;;;4998265;28;20053;-62
2023/01/17 10:36:17;;;;;;;4.45;1.50;;;5.60;1.00;;;;;;4970277;28;20054;-62
2023/01/17 10:38:46;;;;;;;8.65;1.70;;;5.60;1.00;;;;;;5004265;28;20050;-62
2023/01/17 10:41:18;;;;;;;5.82;1.55;;;5.70;1.00;;;;;;4996489;28;20089;-62
2023/01/17 10:44:14;;;;;;;11.55;1.80;;;5.80;1.00;;;;;;5011796;28;20042;-62
2023/01/17 10:46:50;;;;;;;7.78;1.70;;;6.00;1.00;;;;;;5002283;28;20030;-62
2023/01/17 10:49:19;;;;;;;4.90;1.40;;;6.10;1.00;;;;;;5007399;28;20049;-63
2023/01/17 10:52:15;;;;;;;4.97;1.40;;;6.20;1.00;;;;;;5001524;28;20171;-64
2023/01/17 10:55:03;;;;;;;7.65;1.50;;;6.30;1.20;;;;;;5010089;28;20046;-63
2023/01/17 10:57:38;;;;;;;7.95;1.58;;;6.40;1.00;;;;;;5001593;28;20049;-62
2023/01/17 11:00:38;;;;;;;7.38;1.45;;;6.50;1.00;;;;;;5006743;28;20116;-62
2023/01/17 11:03:04;;;;;;;10.68;1.85;;;6.50;1.00;;;;;;5005090;28;20116;-63
2023/01/17 11:05:32;;;;;;;6.55;1.42;;;6.60;1.00;;;;;;5000858;28;20184;-63
2023/01/17 11:08:09;;;;;;;7.60;1.67;;;6.70;1.00;;;;;;5005635;28;20581;-62
2023/01/17 11:10:48;;;;;;;7.15;1.67;;;6.80;1.00;;;;;;5005939;28;20056;-63
2023/01/17 11:13:33;;;;;;;7.68;1.63;;;6.80;1.00;;;;;;5001382;28;20080;-62
2023/01/17 11:16:26;;;;;;;9.05;1.88;;;6.90;1.00;;;;;;5006061;28;20425;-63
2023/01/17 11:19:07;;;;;;;9.05;2.00;;;6.90;1.00;;;;;;5003813;28;20088;-62
2023/01/17 11:21:35;;;;;;;6.78;1.55;;;6.80;1.00;;;;;;4995730;28;20093;-62
2023/01/17 11:24:09;;;;;;;3.75;1.50;;;6.70;1.00;;;;;;5001716;28;20042;-62
2023/01/17 11:26:37;;;;;;;8.05;1.70;;;6.70;1.00;;;;;;5001934;28;20116;-62
2023/01/17 11:29:21;;;;;;;3.92;1.23;;;6.70;1.00;;;;;;5007965;28;20037;-62
2023/01/17 11:31:46;;;;;;;5.25;1.55;;;6.80;1.00;;;;;;5001101;28;20045;-62
2023/01/17 11:34:17;;;;;;;11.75;1.48;;;6.80;1.00;;;;;;5003808;28;20595;-62
2023/01/17 11:36:43;;;;;;;6.65;1.52;;;6.90;1.00;;;;;;5002400;28;20056;-62
2023/01/17 11:39:17;;;;;;;6.50;1.52;;;6.80;1.00;;;;;;5002828;28;20041;-62
2023/01/17 11:41:45;;;;;;;6.60;1.75;;;6.90;1.00;;;;;;5002565;28;20038;-62
2023/01/17 11:44:32;;;;;;;5.53;1.60;;;6.90;1.00;;;;;;5007110;28;20084;-62
2023/01/17 11:47:12;;;;;;;5.55;1.33;;;6.90;1.00;;;;;;5006411;28;20040;-62
2023/01/17 11:49:40;;;;;;;4.85;1.58;;;7.00;1.00;;;;;;5005537;28;20045;-61
2023/01/17 11:52:24;;;;;;;5.00;1.38;;;6.90;1.00;;;;;;5002908;28;20069;-61
2023/01/17 11:54:52;;;;;;;3.95;1.30;;;6.90;1.00;;;;;;5007749;28;20041;-61
2023/01/17 11:57:29;;;;;;;7.32;1.45;;;6.80;1.00;;;;;;5000492;28;20054;-61
2023/01/17 12:00:21;;;;;;;8.75;1.55;;;6.80;1.00;;;;;;5004803;28;20042;-61
2023/01/17 12:02:47;;;;;;;9.23;1.73;;;6.90;1.00;;;;;;5004909;28;20033;-61
2023/01/17 12:05:16;;;;;;;6.07;1.65;;;6.80;1.00;;;;;;5009071;28;20116;-61
2023/01/17 12:08:20;;;;;;;3.95;1.38;;;6.80;1.00;;;;;;4999590;28;20046;-61
2023/01/17 12:10:51;;;;;;;8.68;1.58;;;6.90;1.00;;;;;;4998191;28;20107;-61
2023/01/17 12:16:43;;;;;;;6.30;1.40;;;6.90;1.00;;;;;;5006967;28;20042;-61
2023/01/17 12:19:18;;;;;;;7.18;1.50;;;6.90;1.00;;;;;;5003269;28;20065;-61
2023/01/17 12:22:21;;;;;;;5.00;1.20;;;6.90;1.00;;;;;;5006894;28;20038;-61
2023/01/17 12:24:52;;;;;;;5.38;1.45;;;6.90;1.00;;;;;;4993186;28;20126;-61
2023/01/17 12:27:54;;;;;;;7.65;1.77;;;6.90;1.00;;;;;;5005394;28;20088;-61
2023/01/17 12:30:49;;;;;;;8.32;1.48;;;7.00;1.00;;;;;;5003924;28;20038;-61
2023/01/17 12:33:32;;;;;;;5.43;1.50;;;7.00;1.00;;;;;;5000658;28;20484;-61
2023/01/17 12:36:02;;;;;;;5.13;1.40;;;7.00;1.00;;;;;;5002517;28;20524;-61
2023/01/17 12:38:34;;;;;;;7.47;1.50;;;7.00;1.00;;;;;;5004338;28;20034;-61
2023/01/17 12:41:12;;;;;;;1.88;1.00;;;7.00;1.00;;;;;;5010223;28;20425;-61
2023/01/17 12:43:41;;;;;;;6.72;1.38;;;7.00;1.00;;;;;;5010345;28;20053;-61
2023/01/17 12:46:19;;;;;;;6.78;1.40;;;7.00;1.00;;;;;;5003620;28;20042;-61
2023/01/17 12:48:49;;;;;;;6.88;1.40;;;6.90;1.00;;;;;;5009460;28;20596;-62
2023/01/17 12:51:22;;;;;;;7.07;1.50;;;6.90;1.00;;;;;;5004062;28;20125;-61
2023/01/17 12:54:10;;;;;;;8.20;2.15;;;6.80;1.00;;;;;;5004430;28;20125;-61
2023/01/17 12:56:43;;;;;;;6.57;1.23;;;6.70;1.00;;;;;;4999269;28;20046;-62
2023/01/17 12:59:22;;;;;;;3.50;1.30;;;6.70;1.00;;;;;;5001059;28;20092;-61
2023/01/17 13:01:58;;;;;;;5.05;1.27;;;6.60;1.00;;;;;;4997623;28;20104;-60
2023/01/17 13:04:30;;;;;;;;;;;6.50;1.00;;;;;;5002112;28;20531;-61
2023/01/17 13:06:59;;;;;;;4.45;1.33;;;6.40;1.00;;;;;;5006971;28;20427;-61
2023/01/17 13:09:28;;;;;;;8.00;1.50;;;6.50;1.00;;;;;;4997263;28;20532;-61
2023/01/17 13:12:03;;;;;;;4.00;1.42;;;6.50;1.00;;;;;;5004606;28;20038;-61
2023/01/17 13:14:29;;;;;;;4.93;1.25;;;6.60;1.00;;;;;;5006457;28;20050;-61
2023/01/17 13:16:59;;;;;;;7.57;1.75;;;6.60;1.00;;;;;;5011602;28;20095;-61
2023/01/17 13:19:45;;;;;;;5.05;1.20;;;6.50;1.00;;;;;;5000532;28;20038;-61
2023/01/17 13:22:18;;;;;;;6.60;1.80;;;6.50;1.00;;;;;;4993466;28;20049;-61
2023/01/17 13:25:07;;;;;;;6.53;1.60;;;6.60;1.00;;;;;;4994920;28;20038;-61
2023/01/17 13:27:59;;;;;;;5.18;1.40;;;6.50;1.00;;;;;;5002712;28;20042;-61
2023/01/17 13:30:31;;;;;;;5.93;1.35;;;6.50;1.00;;;;;;5008024;28;20064;-61
2023/01/17 13:33:27;;;;;;;8.57;1.60;;;6.50;1.00;;;;;;5003812;28;20119;-61
2023/01/17 13:36:15;;;;;;;6.30;1.70;;;6.40;1.00;;;;;;4998296;28;20042;-61
2023/01/17 13:38:59;;;;;;;8.02;1.42;;;6.50;1.00;;;;;;5006499;28;20372;-61
2023/01/17 13:41:52;;;;;;;5.72;1.45;;;6.50;1.00;;;;;;4998228;28;20034;-61
2023/01/17 13:44:21;;;;;;;7.25;1.40;;;6.50;1.00;;;;;;4996282;28;20512;-62
2023/01/17 13:47:26;;;;;;;4.07;1.35;;;6.50;1.00;;;;;;5004736;28;20472;-61
2023/01/17 13:49:55;;;;;;;7.72;1.77;;;6.40;1.00;;;;;;5008669;28;20042;-61
2023/01/17 13:52:22;;;;;;;5.32;1.63;;;6.40;1.00;;;;;;4996916;28;20089;-61
2023/01/17 13:54:52;;;;;;;4.88;1.40;;;6.40;1.00;;;;;;5009340;28;20126;-60
2023/01/17 13:57:28;;;;;;;5.85;1.40;;;6.30;1.00;;;;;;4998982;28;20068;-61
2023/01/17 13:59:58;;;;;;;7.93;1.23;;;6.20;1.00;;;;;;5006524;28;20092;-61
2023/01/17 14:02:37;;;;;;;7.32;1.65;;;6.10;1.00;;;;;;5013686;28;20408;-61
2023/01/17 14:05:40;;;;;;;6.65;1.40;;;6.10;1.00;;;;;;4998964;28;20081;-61
2023/01/17 14:08:15;;;;;;;2.90;1.33;;;6.20;1.00;;;;;;4995847;28;20133;-61
2023/01/17 14:10:45;;;;;;;9.10;1.52;;;6.30;1.00;;;;;;4995409;28;20050;-61
2023/01/17 14:13:30;;;;;;;3.92;1.33;;;6.30;1.00;;;;;;5007054;28;20103;-61
2023/01/17 14:15:56;;;;;;;7.38;1.30;;;6.30;1.00;;;;;;4995160;28;20067;-62
2023/01/17 14:18:42;;;;;;;11.13;1.73;;;6.30;1.00;;;;;;5010652;28;20607;-61
2023/01/17 14:21:24;;;;;;;8.02;1.60;;;6.30;1.00;;;;;;4999539;28;20050;-60
2023/01/17 14:24:05;;;;;;;7.82;1.73;;;6.30;1.00;;;;;;5012350;28;20545;-61
2023/01/17 14:26:53;;;;;;;6.82;1.50;;;6.20;1.00;;;;;;5007752;28;20447;-61
2023/01/17 14:29:41;;;;;;;5.22;1.50;;;6.20;1.00;;;;;;4997578;28;20053;-60
2023/01/17 14:32:13;;;;;;;6.68;1.80;;;6.10;1.00;;;;;;5003741;28;20050;-61
2023/01/17 14:34:39;;;;;;;6.63;1.60;;;6.10;1.00;;;;;;5000818;28;20030;-61
2023/01/17 14:37:26;;;;;;;5.80;1.70;;;6.10;1.00;;;;;;4993662;28;20088;-60
2023/01/17 14:39:51;;;;;;;;;;;6.10;1.00;;;;;;4996820;28;20033;-61
2023/01/17 14:42:21;;;;;;;6.80;1.33;;;6.10;1.00;;;;;;5008485;28;19917;-61
2023/01/17 14:44:49;;;;;;;5.47;1.40;;;6.00;1.00;;;;;;5007387;28;20288;-61
2023/01/17 14:47:16;;;;;;;4.78;1.40;;;5.90;1.00;;;;;;5000706;28;20102;-62
2023/01/17 14:49:41;;;;;;;6.63;1.63;;;5.80;1.00;;;;;;5004193;28;20050;-61
2023/01/17 14:52:15;;;;;;;9.27;1.48;;;5.70;1.00;;;;;;5010157;28;20412;-61